Date,TemperatureHighF,TemperatureAvgF,TemperatureLowF,DewpointHighF,DewpointAvgF,DewpointLowF,HumidityHigh,HumidityAvg,HumidityLow,PressureMaxIn,PressureMinIn,WindSpeedMaxMPH,WindSpeedAvgMPH,GustSpeedMaxMPH,PrecipitationSumIn
2013-1-1,52.2,49.1,44.4,47.3,43.4,38.3,92,81,66,30.13,29.97,17,2,25,0.02
2013-1-2,53.3,49.3,44.9,43.6,37.1,31.5,91,63,51,30.40,30.13,31,11,41,0.00
2013-1-3,55.7,49.4,39.8,42.0,33.9,28.9,91,56,41,30.66,30.40,25,6,26,0.00
2013-1-4,61.7,47.4,37.8,50.0,41.1,31.9,95,79,58,30.65,30.46,6,0,8,0.00
2013-1-5,67.2,56.2,42.9,53.9,40.1,22.9,95,61,20,30.46,30.25,15,2,22,0.00
2013-1-6,65.8,55.8,45.7,51.8,42.1,23.0,93,65,22,30.33,30.24,11,1,15,0.00
2013-1-7,63.5,50.9,41.6,53.5,45.1,36.2,93,81,62,30.30,30.17,9,1,13,0.00
2013-1-8,54.4,46.4,39.0,50.9,44.5,37.7,100,93,83,30.34,30.28,7,1,11,0.01
2013-1-9,50.5,46.7,43.3,48.6,45.6,42.5,100,96,91,30.28,30.12,9,4,11,0.01
2013-1-10,56.4,48.0,42.1,50.5,44.7,39.6,100,89,73,30.15,30.08,10,2,13,0.00
2013-1-11,57.8,47.9,40.0,42.8,38.6,34.2,92,72,45,30.19,30.11,13,3,17,0.00
2013-1-12,55.0,44.1,36.3,46.7,40.2,34.0,97,86,72,30.15,29.91,7,1,10,0.00
2013-1-13,49.3,45.2,41.8,43.4,40.3,36.7,94,83,70,29.92,29.76,19,3,28,0.13
2013-1-14,52.1,45.1,38.2,41.7,35.7,32.2,87,70,53,30.00,29.92,12,2,19,0.00
2013-1-15,48.7,41.7,35.6,39.8,34.1,30.3,90,75,51,30.00,29.80,28,3,39,0.00
2013-1-16,49.4,42.6,37.3,42.2,36.4,30.5,95,79,64,29.92,29.59,14,2,17,0.00
2013-1-17,51.6,43.1,37.5,38.5,28.2,22.1,92,59,32,29.86,29.70,17,4,23,0.00
2013-1-18,52.4,42.7,35.0,50.4,34.6,24.6,94,73,54,29.84,29.44,17,2,19,0.00
2013-1-19,57.1,51.0,43.8,55.4,48.8,41.3,97,92,81,29.43,29.00,28,6,36,0.04
2013-1-20,55.4,49.2,39.4,49.5,41.4,35.6,92,75,56,29.54,29.08,11,2,22,0.00
2013-1-21,53.6,45.7,38.1,47.9,40.1,32.7,93,81,61,29.82,29.50,11,2,18,0.02
2013-1-22,52.4,44.2,33.7,39.1,34.2,30.5,90,69,51,29.83,29.56,25,4,32,0.00
2013-1-23,49.4,45.6,36.5,39.1,35.0,29.6,87,67,51,29.76,29.49,27,3,30,0.00
2013-1-24,51.3,43.4,37.1,39.4,34.6,26.9,92,72,51,29.78,29.62,22,5,33,0.00
2013-1-25,56.7,47.2,36.6,41.2,28.8,16.4,85,52,23,29.90,29.76,28,4,34,0.00
2013-1-26,49.3,42.9,35.0,46.3,39.1,31.0,95,87,69,30.10,29.76,11,2,17,0.02
2013-1-27,53.2,45.5,36.4,47.0,42.5,35.1,97,89,73,30.10,29.79,13,1,17,0.02
2013-1-28,59.3,51.9,44.7,46.3,39.9,34.8,95,65,49,30.32,29.84,36,8,44,0.07
2013-1-29,58.7,48.4,40.7,50.0,44.0,37.5,97,85,69,30.37,30.30,8,1,11,0.00
2013-1-30,62.4,47.9,38.5,49.1,41.2,36.1,93,79,47,30.35,30.22,8,1,9,0.00
2013-1-31,62.5,53.3,44.9,53.1,48.0,41.3,96,83,67,30.41,30.31,14,2,20,0.00